createdAt,value
2023-04-02T00:00:45.083Z,3.00
2023-04-02T00:01:45.134Z,3.50
2023-04-02T00:02:45.115Z,4.00
2023-04-02T00:03:45.228Z,3.50
2023-04-02T00:04:45.071Z,4.00
2023-04-02T00:05:45.064Z,3.30
2023-04-02T00:06:45.309Z,4.10
2023-04-02T00:07:45.042Z,3.60
2023-04-02T00:08:45.052Z,4.40
2023-04-02T00:09:45.009Z,4.20
2023-04-02T00:10:45.009Z,3.90
2023-04-02T00:11:45.025Z,4.80
2023-04-02T00:12:44.987Z,4.10
2023-04-02T00:13:44.969Z,4.40
2023-04-02T00:14:45.040Z,3.90
2023-04-02T00:15:44.945Z,4.40
2023-04-02T00:16:45.123Z,6.40
2023-04-02T00:17:44.951Z,5.40
2023-04-02T00:18:44.914Z,4.70
2023-04-02T00:19:44.930Z,4.90
2023-04-02T00:20:44.883Z,4.00
2023-04-02T00:21:44.907Z,3.80
2023-04-02T00:22:44.884Z,4.50
2023-04-02T00:23:44.878Z,5.70
2023-04-02T00:24:44.875Z,3.60
2023-04-02T00:25:44.885Z,3.90
2023-04-02T00:26:44.861Z,4.70
2023-04-02T00:27:44.847Z,4.30
2023-04-02T00:28:44.816Z,3.90
2023-04-02T00:29:44.828Z,5.20
2023-04-02T00:30:44.788Z,7.50
2023-04-02T00:31:44.854Z,5.30
2023-04-02T00:32:44.788Z,4.00
2023-04-02T00:33:44.824Z,4.40
2023-04-02T00:34:44.812Z,4.50
2023-04-02T00:35:44.868Z,4.50
2023-04-02T00:36:44.800Z,4.40
2023-04-02T00:37:44.748Z,4.90
2023-04-02T00:38:46.067Z,4.40
2023-04-02T00:39:44.699Z,3.80
2023-04-02T00:40:44.714Z,5.10
2023-04-02T00:41:44.714Z,3.60
2023-04-02T00:42:44.682Z,3.90
2023-04-02T00:43:44.647Z,4.00
2023-04-02T00:44:44.706Z,4.70
2023-04-02T00:45:44.688Z,4.50
2023-04-02T00:46:44.645Z,3.90
2023-04-02T00:47:44.643Z,3.30
2023-04-02T00:48:44.612Z,3.70
2023-04-02T00:49:44.642Z,5.00
2023-04-02T00:50:44.573Z,3.50
2023-04-02T00:51:44.680Z,5.00
2023-04-02T00:52:44.614Z,5.40
2023-04-02T00:53:44.555Z,3.50
2023-04-02T00:54:44.622Z,4.20
2023-04-02T00:55:44.546Z,3.90
2023-04-02T00:56:44.548Z,4.70
2023-04-02T00:57:44.523Z,4.10
2023-04-02T00:58:44.534Z,5.40
2023-04-02T00:59:44.527Z,5.10
2023-04-02T01:00:44.466Z,4.60
2023-04-02T01:01:44.507Z,5.00
2023-04-02T01:02:44.598Z,4.10
2023-04-02T01:03:44.638Z,5.00
2023-04-02T01:04:44.444Z,4.20
2023-04-02T01:05:44.455Z,5.00
2023-04-02T01:06:44.433Z,4.20
2023-04-02T01:07:44.441Z,4.10
2023-04-02T01:08:44.415Z,3.40
2023-04-02T01:09:44.452Z,4.30
2023-04-02T01:10:44.420Z,3.70
2023-04-02T01:11:44.410Z,4.10
2023-04-02T01:12:44.379Z,4.40
2023-04-02T01:13:44.399Z,4.50
2023-04-02T01:14:44.525Z,4.50
2023-04-02T01:15:44.373Z,5.00
2023-04-02T01:16:44.340Z,3.50
2023-04-02T01:17:45.108Z,3.40
2023-04-02T01:18:44.333Z,3.90
2023-04-02T01:19:44.312Z,4.00
2023-04-02T01:20:44.278Z,5.90
2023-04-02T01:21:44.275Z,4.70
2023-04-02T01:22:44.262Z,4.30
2023-04-02T01:23:44.294Z,4.00
2023-04-02T01:24:44.302Z,3.60
2023-04-02T01:25:44.218Z,3.90
2023-04-02T01:26:44.266Z,4.50
2023-04-02T01:27:44.224Z,4.50
2023-04-02T01:28:44.182Z,3.80
2023-04-02T01:29:44.183Z,3.90
2023-04-02T01:30:44.204Z,5.00
2023-04-02T01:31:44.266Z,4.60
2023-04-02T01:32:44.300Z,3.80
2023-04-02T01:33:44.156Z,4.50
2023-04-02T01:34:44.112Z,6.10
2023-04-02T01:35:44.248Z,4.40
2023-04-02T01:36:44.156Z,4.80
2023-04-02T01:37:44.112Z,5.70
2023-04-02T01:38:44.304Z,4.60
2023-04-02T01:39:44.139Z,4.70
2023-04-02T01:40:44.136Z,5.20
2023-04-02T01:41:44.081Z,4.70
2023-04-02T01:42:44.098Z,5.10
2023-04-02T01:43:44.086Z,5.90
2023-04-02T01:44:44.079Z,5.10
2023-04-02T01:45:44.044Z,4.90
2023-04-02T01:46:44.035Z,6.00
2023-04-02T01:47:44.096Z,6.30
2023-04-02T01:48:44.013Z,7.00
2023-04-02T01:49:44.147Z,4.00
2023-04-02T01:50:43.961Z,5.10
2023-04-02T01:51:44.758Z,4.60
2023-04-02T01:52:43.987Z,5.10
2023-04-02T01:53:43.986Z,4.80
2023-04-02T01:54:43.911Z,4.00
2023-04-02T01:55:43.960Z,6.20
2023-04-02T01:56:43.955Z,4.70
2023-04-02T01:57:43.962Z,5.00
2023-04-02T01:58:43.886Z,5.90
2023-04-02T01:59:44.259Z,5.90
2023-04-02T02:00:43.882Z,4.50
2023-04-02T02:01:43.960Z,4.80
2023-04-02T02:02:43.986Z,4.20
2023-04-02T02:03:43.894Z,4.10
2023-04-02T02:04:43.813Z,4.50
2023-04-02T02:05:43.910Z,4.50
2023-04-02T02:06:43.876Z,4.10
2023-04-02T02:07:43.919Z,4.60
2023-04-02T02:08:43.801Z,4.50
2023-04-02T02:09:43.815Z,5.00
2023-04-02T02:10:43.760Z,5.60
2023-04-02T02:11:43.765Z,6.20
2023-04-02T02:12:43.735Z,3.90
2023-04-02T02:13:43.728Z,3.80
2023-04-02T02:14:43.734Z,4.20
2023-04-02T02:15:43.721Z,5.80
2023-04-02T02:16:43.742Z,4.30
2023-04-02T02:17:43.711Z,5.70
2023-04-02T02:18:43.687Z,5.10
2023-04-02T02:19:43.770Z,4.70
2023-04-02T02:20:43.708Z,5.20
2023-04-02T02:21:43.688Z,4.60
2023-04-02T02:22:43.735Z,5.00
2023-04-02T02:23:43.636Z,5.70
2023-04-02T02:24:43.672Z,5.30
2023-04-02T02:25:43.621Z,6.70
2023-04-02T02:26:43.715Z,5.00
2023-04-02T02:27:43.623Z,5.40
2023-04-02T02:28:43.632Z,8.40
2023-04-02T02:29:43.553Z,6.60
2023-04-02T02:30:43.670Z,7.50
2023-04-02T02:31:43.602Z,6.30
2023-04-02T02:32:43.621Z,6.50
2023-04-02T02:33:43.526Z,6.60
2023-04-02T02:34:43.542Z,6.40
2023-04-02T02:35:43.567Z,6.50
2023-04-02T02:36:43.521Z,6.90
2023-04-02T02:37:43.595Z,6.00
2023-04-02T02:38:43.519Z,7.30
2023-04-02T02:39:43.483Z,6.10
2023-04-02T02:40:43.556Z,6.20
2023-04-02T02:41:43.478Z,6.30
2023-04-02T02:42:43.451Z,7.00
2023-04-02T02:43:43.430Z,6.60
2023-04-02T02:44:43.468Z,5.80
2023-04-02T02:45:43.449Z,6.00
2023-04-02T02:46:43.462Z,7.50
2023-04-02T02:47:43.520Z,6.80
2023-04-02T02:48:43.415Z,6.00
2023-04-02T02:49:43.373Z,5.40
2023-04-02T02:50:43.380Z,6.10
2023-04-02T02:51:43.388Z,7.70
2023-04-02T02:52:43.339Z,5.40
2023-04-02T02:53:43.331Z,5.80
2023-04-02T02:54:43.360Z,7.70
2023-04-02T02:55:43.516Z,7.60
2023-04-02T02:56:43.351Z,6.30
2023-04-02T02:57:43.286Z,7.20
2023-04-02T02:58:43.312Z,6.70
2023-04-02T02:59:43.305Z,6.50
2023-04-02T03:00:43.252Z,7.10
2023-04-02T03:02:04.270Z,6.50
2023-04-02T03:02:43.396Z,6.20
2023-04-02T03:03:43.424Z,6.60
2023-04-02T03:04:43.223Z,6.30
2023-04-02T03:05:43.247Z,6.70
2023-04-02T03:06:43.246Z,6.70
2023-04-02T03:07:43.217Z,6.10
2023-04-02T03:08:43.227Z,6.00
2023-04-02T03:09:43.215Z,7.10
2023-04-02T03:10:43.142Z,8.10
2023-04-02T03:11:43.145Z,7.50
2023-04-02T03:12:43.177Z,6.90
2023-04-02T03:13:43.146Z,8.00
2023-04-02T03:14:43.109Z,6.40
2023-04-02T03:15:43.156Z,7.00
2023-04-02T03:16:43.133Z,7.40
2023-04-02T03:17:43.144Z,6.40
2023-04-02T03:18:43.118Z,8.70
2023-04-02T03:19:43.071Z,10.10
2023-04-02T03:20:43.109Z,9.80
2023-04-02T03:21:43.079Z,11.70
2023-04-02T03:22:43.052Z,12.40
2023-04-02T03:23:43.149Z,13.80
2023-04-02T03:24:43.041Z,15.70
2023-04-02T03:25:43.037Z,16.10
2023-04-02T03:26:43.032Z,13.90
2023-04-02T03:27:42.989Z,14.50
2023-04-02T03:28:43.010Z,14.90
2023-04-02T03:29:42.942Z,12.70
2023-04-02T03:30:42.997Z,13.10
2023-04-02T03:31:42.990Z,14.70
2023-04-02T03:32:42.938Z,15.20
2023-04-02T03:33:43.005Z,13.80
2023-04-02T03:34:42.973Z,12.80
2023-04-02T03:35:42.964Z,11.90
2023-04-02T03:36:42.912Z,15.20
2023-04-02T03:37:42.893Z,14.10
2023-04-02T03:38:42.883Z,13.70
2023-04-02T03:39:42.930Z,11.60
2023-04-02T03:40:42.879Z,12.60
2023-04-02T03:41:42.845Z,13.70
2023-04-02T03:42:42.843Z,12.70
2023-04-02T03:43:42.852Z,12.60
2023-04-02T03:44:42.835Z,11.60
2023-04-02T03:45:42.868Z,13.30
2023-04-02T03:46:42.876Z,13.00
2023-04-02T03:47:42.858Z,13.70
2023-04-02T03:48:42.795Z,10.80
2023-04-02T03:49:42.800Z,13.50
2023-04-02T03:50:42.779Z,12.90
2023-04-02T03:51:42.776Z,14.60
2023-04-02T03:52:42.782Z,12.80
2023-04-02T03:53:42.764Z,13.80
2023-04-02T03:54:53.822Z,13.60
2023-04-02T03:55:42.702Z,13.10
2023-04-02T03:56:42.757Z,13.80
2023-04-02T03:57:42.716Z,12.00
2023-04-02T03:58:42.681Z,13.00
2023-04-02T03:59:42.683Z,14.50
2023-04-02T04:00:42.675Z,14.70
2023-04-02T04:01:42.700Z,15.30
2023-04-02T04:02:42.730Z,14.50
2023-04-02T04:03:42.656Z,14.80
2023-04-02T04:04:42.630Z,14.60
2023-04-02T04:05:42.621Z,15.70
2023-04-02T04:06:42.706Z,12.50
2023-04-02T04:07:42.734Z,15.00
2023-04-02T04:08:42.579Z,13.20
2023-04-02T04:09:42.650Z,11.80
2023-04-02T04:10:43.580Z,16.90
2023-04-02T04:11:42.575Z,14.30
2023-04-02T04:12:42.538Z,16.00
2023-04-02T04:13:42.570Z,13.10
2023-04-02T04:14:44.051Z,15.30
2023-04-02T04:15:42.552Z,16.00
2023-04-02T04:16:42.550Z,11.40
2023-04-02T04:17:42.530Z,13.10
2023-04-02T04:18:42.513Z,13.50
2023-04-02T04:19:42.433Z,16.20
2023-04-02T04:20:42.512Z,14.70
2023-04-02T04:21:42.450Z,12.60
2023-04-02T04:22:42.446Z,13.10
2023-04-02T04:23:42.461Z,12.70
2023-04-02T04:24:42.416Z,13.50
2023-04-02T04:25:42.449Z,16.00
2023-04-02T04:26:42.404Z,17.20
2023-04-02T04:27:42.640Z,13.70
2023-04-02T04:28:42.413Z,14.60
2023-04-02T04:29:42.324Z,14.90
2023-04-02T04:30:42.409Z,11.30
2023-04-02T04:31:42.340Z,12.30
2023-04-02T04:32:42.356Z,13.40
2023-04-02T04:33:42.588Z,14.90
2023-04-02T04:34:42.357Z,10.60
2023-04-02T04:35:42.338Z,14.20
2023-04-02T04:36:42.309Z,14.80
2023-04-02T04:37:43.327Z,12.90
2023-04-02T04:38:42.453Z,14.60
2023-04-02T04:39:42.253Z,12.40
2023-04-02T04:40:42.221Z,14.10
2023-04-02T04:41:42.221Z,15.40
2023-04-02T04:42:42.334Z,13.90
2023-04-02T04:43:42.152Z,12.20
2023-04-02T04:44:42.148Z,15.20
2023-04-02T04:45:42.274Z,12.10
2023-04-02T04:46:42.179Z,12.90
2023-04-02T04:47:42.229Z,13.20
2023-04-02T04:48:42.135Z,12.70
2023-04-02T04:49:42.153Z,13.80
2023-04-02T04:50:42.077Z,12.10
2023-04-02T04:51:42.115Z,11.90
2023-04-02T04:52:42.072Z,13.70
2023-04-02T04:53:42.352Z,15.40
2023-04-02T04:54:42.044Z,15.00
2023-04-02T04:55:42.063Z,13.40
2023-04-02T04:56:42.066Z,16.80
2023-04-02T04:57:42.288Z,14.30
2023-04-02T04:58:42.022Z,13.20
2023-04-02T04:59:42.084Z,11.30
2023-04-02T05:00:41.994Z,13.00
2023-04-02T05:01:42.721Z,13.70
2023-04-02T05:02:42.041Z,10.30
2023-04-02T05:03:41.943Z,12.80
2023-04-02T05:04:42.042Z,12.70
2023-04-02T05:05:42.016Z,13.40
2023-04-02T05:06:41.975Z,13.50
2023-04-02T05:07:41.980Z,12.20
2023-04-02T05:08:41.948Z,12.80
2023-04-02T05:09:41.910Z,12.00
2023-04-02T05:10:41.871Z,12.40
2023-04-02T05:11:41.886Z,13.30
2023-04-02T05:12:41.887Z,13.00
2023-04-02T05:13:41.918Z,10.90
2023-04-02T05:14:41.889Z,12.90
2023-04-02T05:15:42.060Z,14.90
2023-04-02T05:16:41.819Z,11.20
2023-04-02T05:17:41.860Z,12.70
2023-04-02T05:18:41.788Z,12.40
2023-04-02T05:19:41.825Z,11.80
2023-04-02T05:20:41.763Z,13.40
2023-04-02T05:21:41.835Z,12.50
2023-04-02T05:22:41.768Z,12.00
2023-04-02T05:23:41.756Z,10.90
2023-04-02T05:24:41.766Z,11.50
2023-04-02T05:25:41.715Z,11.60
2023-04-02T05:26:41.702Z,12.50
2023-04-02T05:27:41.764Z,11.30
2023-04-02T05:28:41.717Z,10.60
2023-04-02T05:29:41.779Z,13.00
2023-04-02T05:30:41.738Z,9.70
2023-04-02T05:31:41.700Z,8.80
2023-04-02T05:32:41.703Z,9.80
2023-04-02T05:33:41.659Z,9.70
2023-04-02T05:34:41.641Z,8.00
2023-04-02T05:35:41.648Z,10.00
2023-04-02T05:36:41.609Z,10.20
2023-04-02T05:37:41.676Z,11.40
2023-04-02T05:38:41.590Z,8.90
2023-04-02T05:39:41.575Z,9.80
2023-04-02T05:40:41.590Z,10.60
2023-04-02T05:41:41.556Z,11.80
2023-04-02T05:42:41.583Z,9.80
2023-04-02T05:43:41.541Z,10.30
2023-04-02T05:44:41.579Z,20.50
2023-04-02T05:45:41.524Z,9.30
2023-04-02T05:46:41.606Z,9.50
2023-04-02T05:47:41.527Z,11.20
2023-04-02T05:48:41.491Z,12.10
2023-04-02T05:49:41.468Z,8.20
2023-04-02T05:50:41.524Z,12.20
2023-04-02T05:51:41.546Z,11.20
2023-04-02T05:52:41.508Z,11.70
2023-04-02T05:53:41.472Z,11.40
2023-04-02T05:54:41.496Z,9.30
2023-04-02T05:55:41.436Z,9.10
2023-04-02T05:56:41.439Z,12.80
2023-04-02T05:57:46.882Z,10.90
2023-04-02T05:58:42.628Z,13.20
2023-04-02T05:59:41.332Z,12.20
2023-04-02T06:00:41.490Z,12.50
2023-04-02T06:01:41.353Z,12.50
2023-04-02T06:02:41.509Z,11.10
2023-04-02T06:03:41.345Z,9.80
2023-04-02T06:04:41.461Z,12.50
2023-04-02T06:05:41.356Z,11.10
2023-04-02T06:06:41.301Z,13.30
2023-04-02T06:07:41.316Z,11.20
2023-04-02T06:08:41.261Z,11.70
2023-04-02T06:09:41.255Z,11.50
2023-04-02T06:10:41.242Z,11.50
2023-04-02T06:11:41.256Z,10.70
2023-04-02T06:12:41.266Z,12.50
2023-04-02T06:13:41.255Z,9.30
2023-04-02T06:14:41.207Z,11.70
2023-04-02T06:15:41.198Z,12.60
2023-04-02T06:16:41.217Z,9.10
2023-04-02T06:17:41.266Z,10.00
2023-04-02T06:18:41.201Z,9.20
2023-04-02T06:19:41.191Z,10.60
2023-04-02T06:20:41.175Z,9.70
2023-04-02T06:21:41.132Z,10.30
2023-04-02T06:22:41.113Z,9.80
2023-04-02T06:23:41.127Z,10.80
2023-04-02T06:24:41.125Z,10.40
2023-04-02T06:25:41.174Z,11.90
2023-04-02T06:26:41.116Z,11.00
2023-04-02T06:27:41.087Z,10.50
2023-04-02T06:28:41.112Z,10.60
2023-04-02T06:29:41.067Z,9.70
2023-04-02T06:30:41.120Z,12.90
2023-04-02T06:31:41.064Z,10.10
2023-04-02T06:32:41.072Z,10.30
2023-04-02T06:33:41.048Z,9.80
2023-04-02T06:34:41.058Z,10.90
2023-04-02T06:35:41.105Z,8.30
2023-04-02T06:36:40.978Z,10.40
2023-04-02T06:37:40.976Z,10.60
2023-04-02T06:38:40.999Z,8.40
2023-04-02T06:39:40.981Z,9.10
2023-04-02T06:40:40.935Z,9.90
2023-04-02T06:41:41.100Z,8.30
2023-04-02T06:42:40.966Z,9.20
2023-04-02T06:43:40.947Z,9.20
2023-04-02T06:44:40.923Z,9.90
2023-04-02T06:45:40.931Z,9.90
2023-04-02T06:46:40.886Z,10.50
2023-04-02T06:47:40.952Z,8.30
2023-04-02T06:48:40.897Z,9.80
2023-04-02T06:49:41.038Z,10.30
2023-04-02T06:50:40.876Z,8.90
2023-04-02T06:51:40.878Z,9.90
2023-04-02T06:52:40.814Z,7.00
2023-04-02T06:53:40.850Z,10.40
2023-04-02T06:54:40.817Z,7.80
2023-04-02T06:55:40.815Z,8.20
2023-04-02T06:56:40.822Z,11.70
2023-04-02T06:57:42.545Z,9.10
2023-04-02T06:58:41.187Z,10.50
2023-04-02T06:59:40.772Z,8.00
2023-04-02T07:00:40.762Z,8.40
2023-04-02T07:01:40.881Z,8.90
2023-04-02T07:02:40.832Z,8.10
2023-04-02T07:03:40.739Z,8.00
2023-04-02T07:04:40.697Z,8.10
2023-04-02T07:05:42.977Z,10.40
2023-04-02T07:06:40.749Z,8.70
2023-04-02T07:07:40.653Z,10.50
2023-04-02T07:08:40.767Z,9.90
2023-04-02T07:09:40.672Z,9.10
2023-04-02T07:10:40.641Z,10.80
2023-04-02T07:11:40.658Z,8.30
2023-04-02T07:12:40.711Z,8.50
2023-04-02T07:13:40.647Z,10.30
2023-04-02T07:14:40.630Z,10.10
2023-04-02T07:15:40.656Z,10.20
2023-04-02T07:16:40.586Z,8.50
2023-04-02T07:17:40.571Z,10.30
2023-04-02T07:18:40.566Z,9.40
2023-04-02T07:19:40.587Z,9.90
2023-04-02T07:20:40.560Z,8.00
2023-04-02T07:21:40.524Z,11.10
2023-04-02T07:22:40.534Z,9.40
2023-04-02T07:23:40.503Z,8.10
2023-04-02T07:24:40.680Z,9.50
2023-04-02T07:25:40.623Z,8.40
2023-04-02T07:26:40.520Z,8.90
2023-04-02T07:27:40.510Z,8.80
2023-04-02T07:28:40.445Z,8.80
2023-04-02T07:29:40.472Z,9.40
2023-04-02T07:30:40.534Z,9.00
2023-04-02T07:31:40.430Z,8.10
2023-04-02T07:32:40.433Z,9.80
2023-04-02T07:33:42.143Z,9.90
2023-04-02T07:34:40.377Z,8.60
2023-04-02T07:35:40.411Z,9.10
2023-04-02T07:36:40.419Z,11.60
2023-04-02T07:37:40.403Z,6.40
2023-04-02T07:38:40.381Z,8.00
2023-04-02T07:39:40.829Z,8.10
2023-04-02T07:40:40.350Z,8.70
2023-04-02T07:41:40.311Z,10.30
2023-04-02T07:42:40.381Z,8.40
2023-04-02T07:43:40.344Z,8.40
2023-04-02T07:44:40.283Z,9.40
2023-04-02T07:45:40.357Z,9.40
2023-04-02T07:46:40.337Z,8.40
2023-04-02T07:47:40.398Z,7.40
2023-04-02T07:48:40.245Z,8.90
2023-04-02T07:49:40.249Z,8.40
2023-04-02T07:50:40.240Z,10.00
2023-04-02T07:51:40.204Z,8.40
2023-04-02T07:52:40.630Z,7.80
2023-04-02T07:53:40.358Z,9.80
2023-04-02T07:54:40.213Z,9.00
2023-04-02T07:55:40.692Z,6.70
2023-04-02T07:56:40.241Z,6.00
2023-04-02T07:57:40.167Z,7.60
2023-04-02T07:58:40.177Z,7.80
2023-04-02T07:59:40.147Z,6.10
2023-04-02T08:00:40.130Z,10.60
2023-04-02T08:01:40.205Z,6.90
2023-04-02T08:02:40.196Z,7.90
2023-04-02T08:03:40.169Z,8.20
2023-04-02T08:04:40.150Z,8.10
2023-04-02T08:05:40.093Z,8.50
2023-04-02T08:06:40.140Z,7.70
2023-04-02T08:07:40.043Z,9.30
2023-04-02T08:08:40.088Z,9.60
2023-04-02T08:09:40.050Z,9.60
2023-04-02T08:10:40.017Z,9.30
2023-04-02T08:11:40.010Z,7.50
2023-04-02T08:12:40.045Z,12.60
2023-04-02T08:13:40.063Z,9.80
2023-04-02T08:14:39.974Z,6.40
2023-04-02T08:15:39.993Z,8.50
2023-04-02T08:16:40.000Z,8.80
2023-04-02T08:17:40.014Z,7.80
2023-04-02T08:18:39.940Z,6.40
2023-04-02T08:19:51.969Z,11.20
2023-04-02T08:20:39.938Z,8.60
2023-04-02T08:21:39.972Z,5.90
2023-04-02T08:22:39.900Z,7.60
2023-04-02T08:23:39.883Z,8.60
2023-04-02T08:24:39.880Z,6.40
2023-04-02T08:25:39.872Z,11.00
2023-04-02T08:26:39.877Z,8.90
2023-04-02T08:27:39.909Z,8.10
2023-04-02T08:28:39.890Z,7.80
2023-04-02T08:29:39.910Z,9.30
2023-04-02T08:30:39.822Z,6.90
2023-04-02T08:31:39.847Z,10.30
2023-04-02T08:32:39.826Z,9.80
2023-04-02T08:33:39.779Z,7.40
2023-04-02T08:34:39.815Z,6.00
2023-04-02T08:35:40.150Z,8.30
2023-04-02T08:36:39.756Z,7.20
2023-04-02T08:37:39.720Z,7.30
2023-04-02T08:38:39.798Z,7.50
2023-04-02T08:39:39.720Z,12.30
2023-04-02T08:40:39.739Z,7.10
2023-04-02T08:41:39.808Z,6.20
2023-04-02T08:42:39.662Z,9.20
2023-04-02T08:43:39.659Z,7.80
2023-04-02T08:44:39.704Z,8.20
2023-04-02T08:45:39.843Z,9.80
2023-04-02T08:46:39.716Z,9.30
2023-04-02T08:47:39.671Z,6.00
2023-04-02T08:48:42.067Z,7.40
2023-04-02T08:49:39.663Z,8.30
2023-04-02T08:50:39.620Z,8.10
2023-04-02T08:51:39.633Z,4.70
2023-04-02T08:52:39.618Z,7.90
2023-04-02T08:53:39.639Z,6.00
2023-04-02T08:54:39.627Z,6.30
2023-04-02T08:55:39.558Z,7.60
2023-04-02T08:56:39.587Z,6.30
2023-04-02T08:57:39.607Z,6.70
2023-04-02T08:58:39.573Z,7.20
2023-04-02T08:59:39.537Z,6.50
2023-04-02T09:00:39.509Z,7.40
2023-04-02T09:01:39.565Z,6.90
2023-04-02T09:02:39.526Z,7.50
2023-04-02T09:03:39.518Z,7.50
2023-04-02T09:04:39.484Z,7.90
2023-04-02T09:05:39.480Z,7.30
2023-04-02T09:06:39.410Z,6.10
2023-04-02T09:07:39.479Z,7.40
2023-04-02T09:08:39.483Z,5.80
2023-04-02T09:09:39.395Z,6.50
2023-04-02T09:10:39.492Z,7.00
2023-04-02T09:11:39.442Z,6.50
2023-04-02T09:12:40.640Z,6.50
2023-04-02T09:13:39.423Z,8.90
2023-04-02T09:14:39.345Z,8.20
2023-04-02T09:15:39.521Z,8.40
2023-04-02T09:16:39.406Z,7.30
2023-04-02T09:17:50.407Z,7.90
2023-04-02T09:18:39.461Z,7.00
2023-04-02T09:19:39.350Z,7.30
2023-04-02T09:20:39.386Z,5.50
2023-04-02T09:21:39.384Z,10.30
2023-04-02T09:22:39.361Z,4.70
2023-04-02T09:23:39.291Z,7.70
2023-04-02T09:24:39.289Z,8.30
2023-04-02T09:25:39.302Z,7.30
2023-04-02T09:26:39.444Z,6.60
2023-04-02T09:27:39.327Z,7.10
2023-04-02T09:28:39.272Z,7.90
2023-04-02T09:29:39.333Z,8.90
2023-04-02T09:30:39.299Z,6.50
2023-04-02T09:31:39.367Z,6.90
2023-04-02T09:32:39.215Z,6.90
2023-04-02T09:33:39.264Z,7.00
2023-04-02T09:34:39.195Z,8.50
2023-04-02T09:35:39.286Z,6.80
2023-04-02T09:36:39.184Z,5.20
2023-04-02T09:37:39.205Z,6.20
2023-04-02T09:38:39.131Z,8.60
2023-04-02T09:39:39.142Z,6.00
2023-04-02T09:40:39.164Z,7.00
2023-04-02T09:41:39.158Z,6.30
2023-04-02T09:42:39.364Z,5.60
2023-04-02T09:43:39.116Z,6.30
2023-04-02T09:44:39.286Z,6.70
2023-04-02T09:45:39.148Z,7.00
2023-04-02T09:46:39.174Z,6.40
2023-04-02T09:47:40.265Z,5.80
2023-04-02T09:48:39.196Z,9.60
2023-04-02T09:49:39.171Z,7.60
2023-04-02T09:50:39.278Z,9.20
2023-04-02T09:51:39.069Z,6.50
2023-04-02T09:52:39.028Z,6.60
2023-04-02T09:53:41.134Z,4.90
2023-04-02T09:54:39.140Z,6.60
2023-04-02T09:55:39.068Z,6.20
2023-04-02T09:56:39.088Z,6.30
2023-04-02T09:57:39.028Z,6.20
2023-04-02T09:58:38.908Z,5.50
2023-04-02T09:59:39.040Z,8.60
2023-04-02T10:00:38.987Z,5.10
2023-04-02T10:01:39.009Z,7.50
2023-04-02T10:02:38.983Z,5.90
2023-04-02T10:03:38.907Z,4.30
2023-04-02T10:04:39.082Z,6.30
2023-04-02T10:05:40.938Z,4.40
2023-04-02T10:06:38.894Z,6.10
2023-04-02T10:07:38.844Z,3.80
2023-04-02T10:08:38.828Z,5.30
2023-04-02T10:09:39.025Z,4.60
2023-04-02T10:10:38.791Z,5.10
2023-04-02T10:11:46.432Z,5.80
2023-04-02T10:12:38.825Z,5.70
2023-04-02T10:13:38.952Z,6.50
2023-04-02T10:14:38.875Z,6.90
2023-04-02T10:15:38.772Z,4.00
2023-04-02T10:16:39.202Z,5.60
2023-04-02T10:17:38.803Z,5.10
2023-04-02T10:18:39.861Z,6.30
2023-04-02T10:19:38.778Z,6.60
2023-04-02T10:20:48.588Z,4.80
2023-04-02T10:21:38.771Z,5.00
2023-04-02T10:22:38.732Z,6.80
2023-04-02T10:23:38.743Z,5.60
2023-04-02T10:24:38.779Z,6.90
2023-04-02T10:25:38.819Z,5.80
2023-04-02T10:26:38.732Z,5.80
2023-04-02T10:27:38.725Z,7.40
2023-04-02T10:28:38.638Z,4.20
2023-04-02T10:29:38.686Z,4.40
2023-04-02T10:30:38.868Z,4.90
2023-04-02T10:31:39.054Z,4.80
2023-04-02T10:32:38.701Z,6.10
2023-04-02T10:33:38.610Z,4.70
2023-04-02T10:34:39.073Z,5.20
2023-04-02T10:35:38.826Z,4.60
2023-04-02T10:36:38.564Z,6.50
2023-04-02T10:37:38.579Z,6.10
2023-04-02T10:38:38.592Z,6.10
2023-04-02T10:39:39.265Z,7.80
2023-04-02T10:40:38.860Z,7.20
2023-04-02T10:41:38.579Z,6.80
2023-04-02T10:42:38.569Z,8.00
2023-04-02T10:43:38.552Z,6.40
2023-04-02T10:44:38.945Z,6.30
2023-04-02T10:45:38.701Z,6.40
2023-04-02T10:46:38.581Z,5.50
2023-04-02T10:47:38.520Z,7.10
2023-04-02T10:48:38.463Z,5.70
2023-04-02T10:49:38.452Z,6.10
2023-04-02T10:50:38.416Z,5.30
2023-04-02T10:51:38.565Z,7.90
2023-04-02T10:52:38.487Z,8.30
2023-04-02T10:53:38.404Z,8.10
2023-04-02T10:54:38.475Z,6.30
2023-04-02T10:55:38.423Z,4.40
2023-04-02T10:56:50.071Z,7.20
2023-04-02T10:57:38.446Z,4.60
2023-04-02T10:58:38.345Z,4.60
2023-04-02T10:59:38.291Z,7.30
2023-04-02T11:00:38.310Z,6.00
2023-04-02T11:01:38.375Z,7.80
2023-04-02T11:02:38.327Z,6.10
2023-04-02T11:03:38.496Z,6.70
2023-04-02T11:04:38.332Z,9.70
2023-04-02T11:05:38.314Z,5.30
2023-04-02T11:06:38.257Z,6.10
2023-04-02T11:07:38.331Z,5.30
2023-04-02T11:08:38.216Z,6.60
2023-04-02T11:09:38.372Z,5.30
2023-04-02T11:10:38.250Z,4.70
2023-04-02T11:11:38.323Z,6.60
2023-04-02T11:12:41.566Z,5.60
2023-04-02T11:13:38.351Z,5.30
2023-04-02T11:14:38.236Z,7.30
2023-04-02T11:15:38.176Z,6.10
2023-04-02T11:16:41.751Z,5.70
2023-04-02T11:17:38.193Z,5.20
2023-04-02T11:18:38.151Z,4.70
2023-04-02T11:19:38.194Z,5.80
2023-04-02T11:20:38.115Z,4.80
2023-04-02T11:21:44.813Z,4.30
2023-04-02T11:22:38.213Z,4.80
2023-04-02T11:23:38.065Z,7.60
2023-04-02T11:24:38.090Z,4.30
2023-04-02T11:25:38.091Z,6.00
2023-04-02T11:26:38.159Z,5.70
2023-04-02T11:27:38.222Z,4.90
2023-04-02T11:28:38.065Z,7.90
2023-04-02T11:29:38.036Z,6.10
2023-04-02T11:30:38.106Z,5.50
2023-04-02T11:31:38.107Z,6.30
2023-04-02T11:32:37.995Z,5.60
2023-04-02T11:33:40.679Z,6.10
2023-04-02T11:34:37.981Z,4.90
2023-04-02T11:35:38.317Z,9.80
2023-04-02T11:36:38.016Z,6.40
2023-04-02T11:37:38.432Z,4.80
2023-04-02T11:38:37.971Z,5.00
2023-04-02T11:39:37.936Z,5.50
2023-04-02T11:40:38.006Z,6.50
2023-04-02T11:41:37.960Z,7.60
2023-04-02T11:42:38.019Z,7.90
2023-04-02T11:43:37.946Z,5.60
2023-04-02T11:44:38.631Z,6.00
2023-04-02T11:45:50.069Z,6.20
2023-04-02T11:46:38.001Z,7.00
2023-04-02T11:47:37.875Z,5.60
2023-04-02T11:48:37.883Z,6.90
2023-04-02T11:49:37.889Z,5.70
2023-04-02T11:50:37.911Z,5.90
2023-04-02T11:51:37.794Z,5.70
2023-04-02T11:52:37.818Z,5.10
2023-04-02T11:53:37.793Z,4.10
2023-04-02T11:54:37.757Z,5.80
2023-04-02T11:55:38.209Z,6.00
2023-04-02T11:56:37.716Z,11.50
2023-04-02T11:57:37.907Z,7.60
2023-04-02T11:58:37.754Z,6.20
2023-04-02T11:59:37.713Z,5.50
2023-04-02T12:00:37.927Z,5.60
2023-04-02T12:01:37.874Z,5.90
2023-04-02T12:02:37.823Z,5.20
2023-04-02T12:03:37.650Z,8.00
2023-04-02T12:04:37.709Z,7.40
2023-04-02T12:05:37.942Z,4.30
2023-04-02T12:06:37.641Z,5.40
2023-04-02T12:07:37.633Z,5.80
2023-04-02T12:08:47.171Z,5.10
2023-04-02T12:09:37.589Z,4.90
2023-04-02T12:10:37.557Z,7.60
2023-04-02T12:11:37.552Z,6.00
2023-04-02T12:12:37.580Z,5.90
2023-04-02T12:13:37.616Z,5.30
2023-04-02T12:14:37.540Z,6.80
2023-04-02T12:15:37.546Z,4.90
2023-04-02T12:16:37.550Z,5.60
2023-04-02T12:17:37.568Z,6.10
2023-04-02T12:18:37.477Z,5.90
2023-04-02T12:19:37.473Z,5.00
2023-04-02T12:20:37.647Z,4.40
2023-04-02T12:21:37.508Z,6.30
2023-04-02T12:22:37.472Z,5.80
2023-04-02T12:23:37.428Z,4.50
2023-04-02T12:24:37.414Z,5.60
2023-04-02T12:25:37.755Z,5.70
2023-04-02T12:26:37.563Z,8.10
2023-04-02T12:27:37.364Z,4.40
2023-04-02T12:28:37.378Z,4.40
2023-04-02T12:29:37.365Z,5.90
2023-04-02T12:30:37.477Z,7.70
2023-04-02T12:31:37.345Z,6.20
2023-04-02T12:32:37.437Z,6.10
2023-04-02T12:33:37.366Z,6.80
2023-04-02T12:34:37.351Z,6.20
2023-04-02T12:35:37.263Z,5.90
2023-04-02T12:36:37.396Z,8.20
2023-04-02T12:37:37.266Z,5.00
2023-04-02T12:38:37.352Z,6.10
2023-04-02T12:39:37.256Z,4.80
2023-04-02T12:40:37.460Z,5.40
2023-04-02T12:41:37.229Z,4.90
2023-04-02T12:42:37.292Z,5.60
2023-04-02T12:43:37.187Z,5.40
2023-04-02T12:44:37.229Z,6.00
2023-04-02T12:45:37.189Z,4.30
2023-04-02T12:46:37.211Z,4.30
2023-04-02T12:47:37.202Z,7.00
2023-04-02T12:48:37.189Z,4.90
2023-04-02T12:49:37.184Z,5.50
2023-04-02T12:50:37.439Z,6.90
2023-04-02T12:51:37.170Z,7.40
2023-04-02T12:52:37.150Z,5.50
2023-04-02T12:53:37.107Z,6.40
2023-04-02T12:54:37.112Z,5.00
2023-04-02T12:55:37.084Z,5.30
2023-04-02T12:56:37.082Z,5.80
2023-04-02T12:57:37.220Z,9.60
2023-04-02T12:58:37.010Z,8.50
2023-04-02T12:59:37.036Z,6.10
2023-04-02T13:00:37.392Z,6.00
2023-04-02T13:01:37.018Z,5.00
2023-04-02T13:02:37.048Z,6.70
2023-04-02T13:03:37.092Z,6.60
2023-04-02T13:04:36.983Z,6.70
2023-04-02T13:05:36.989Z,5.60
2023-04-02T13:06:36.953Z,5.80
2023-04-02T13:07:36.963Z,7.00
2023-04-02T13:08:36.948Z,6.10
2023-04-02T13:09:36.954Z,5.30
2023-04-02T13:10:37.148Z,5.70
2023-04-02T13:11:36.909Z,4.80